sensor_id;sensor_type;location;lat;lon;timestamp;temperature;humidity
35559;DHT22;21661;50.794;-1.066;2023-11-21T00:01:17;11.40;99.90
35559;DHT22;21661;50.794;-1.066;2023-11-21T00:03:43;11.40;99.90
35559;DHT22;21661;50.794;-1.066;2023-11-21T00:06:09;11.30;99.90
35559;DHT22;21661;50.794;-1.066;2023-11-21T00:08:35;11.40;99.90
35559;DHT22;21661;50.794;-1.066;2023-11-21T00:11:01;11.40;99.90
35559;DHT22;21661;50.794;-1.066;2023-11-21T00:13:26;11.40;99.90
35559;DHT22;21661;50.794;-1.066;2023-11-21T00:15:52;11.40;99.90
35559;DHT22;21661;50.794;-1.066;2023-11-21T00:18:18;11.40;99.90
35559;DHT22;21661;50.794;-1.066;2023-11-21T00:20:44;11.40;99.90
35559;DHT22;21661;50.794;-1.066;2023-11-21T00:23:09;11.30;99.90
35559;DHT22;21661;50.794;-1.066;2023-11-21T00:25:35;11.30;99.90
35559;DHT22;21661;50.794;-1.066;2023-11-21T00:28:01;11.30;99.90
35559;DHT22;21661;50.794;-1.066;2023-11-21T00:30:27;11.30;99.90
35559;DHT22;21661;50.794;-1.066;2023-11-21T00:32:54;11.30;99.90
35559;DHT22;21661;50.794;-1.066;2023-11-21T00:35:20;11.30;99.90
35559;DHT22;21661;50.794;-1.066;2023-11-21T00:37:45;11.30;99.90
35559;DHT22;21661;50.794;-1.066;2023-11-21T00:40:12;11.30;99.90
35559;DHT22;21661;50.794;-1.066;2023-11-21T00:42:37;11.20;99.90
35559;DHT22;21661;50.794;-1.066;2023-11-21T00:45:03;11.20;99.90
35559;DHT22;21661;50.794;-1.066;2023-11-21T00:47:29;11.20;99.90
35559;DHT22;21661;50.794;-1.066;2023-11-21T00:49:54;11.20;99.90
35559;DHT22;21661;50.794;-1.066;2023-11-21T00:52:20;11.30;99.90
35559;DHT22;21661;50.794;-1.066;2023-11-21T00:54:46;11.20;99.90
35559;DHT22;21661;50.794;-1.066;2023-11-21T00:57:13;11.20;99.90
35559;DHT22;21661;50.794;-1.066;2023-11-21T00:59:39;11.20;99.90
35559;DHT22;21661;50.794;-1.066;2023-11-21T01:02:05;11.20;99.90
35559;DHT22;21661;50.794;-1.066;2023-11-21T01:04:30;11.20;99.90
35559;DHT22;21661;50.794;-1.066;2023-11-21T01:06:57;11.20;99.90
35559;DHT22;21661;50.794;-1.066;2023-11-21T01:09:23;11.20;99.90
35559;DHT22;21661;50.794;-1.066;2023-11-21T01:11:49;11.20;99.90
35559;DHT22;21661;50.794;-1.066;2023-11-21T01:14:15;11.20;99.90
35559;DHT22;21661;50.794;-1.066;2023-11-21T01:16:40;11.20;99.90
35559;DHT22;21661;50.794;-1.066;2023-11-21T01:19:06;11.20;99.90
35559;DHT22;21661;50.794;-1.066;2023-11-21T01:21:31;11.20;99.90
35559;DHT22;21661;50.794;-1.066;2023-11-21T01:23:57;11.20;99.90
35559;DHT22;21661;50.794;-1.066;2023-11-21T01:26:23;11.20;99.90
35559;DHT22;21661;50.794;-1.066;2023-11-21T01:28:48;11.20;99.90
35559;DHT22;21661;50.794;-1.066;2023-11-21T01:31:15;11.10;99.90
35559;DHT22;21661;50.794;-1.066;2023-11-21T01:33:40;11.10;99.90
35559;DHT22;21661;50.794;-1.066;2023-11-21T01:36:06;11.10;99.90
35559;DHT22;21661;50.794;-1.066;2023-11-21T01:38:32;11.10;99.90
35559;DHT22;21661;50.794;-1.066;2023-11-21T01:40:57;11.10;99.90
35559;DHT22;21661;50.794;-1.066;2023-11-21T01:43:26;11.10;99.90
35559;DHT22;21661;50.794;-1.066;2023-11-21T01:45:53;11.00;99.90
35559;DHT22;21661;50.794;-1.066;2023-11-21T01:48:19;11.00;99.90
35559;DHT22;21661;50.794;-1.066;2023-11-21T01:50:45;11.00;99.90
35559;DHT22;21661;50.794;-1.066;2023-11-21T01:53:12;11.00;99.90
35559;DHT22;21661;50.794;-1.066;2023-11-21T01:55:40;10.90;99.90
35559;DHT22;21661;50.794;-1.066;2023-11-21T01:58:06;11.00;99.90
35559;DHT22;21661;50.794;-1.066;2023-11-21T02:00:33;11.00;99.90
35559;DHT22;21661;50.794;-1.066;2023-11-21T02:02:58;11.10;99.90
35559;DHT22;21661;50.794;-1.066;2023-11-21T02:05:24;11.10;99.90
35559;DHT22;21661;50.794;-1.066;2023-11-21T02:07:51;11.00;99.90
35559;DHT22;21661;50.794;-1.066;2023-11-21T02:10:18;11.10;99.90
35559;DHT22;21661;50.794;-1.066;2023-11-21T02:12:48;11.10;99.90
35559;DHT22;21661;50.794;-1.066;2023-11-21T02:15:16;11.00;99.90
35559;DHT22;21661;50.794;-1.066;2023-11-21T02:17:46;11.00;99.90
35559;DHT22;21661;50.794;-1.066;2023-11-21T02:20:13;11.10;99.90
35559;DHT22;21661;50.794;-1.066;2023-11-21T02:22:44;11.10;99.90
35559;DHT22;21661;50.794;-1.066;2023-11-21T02:25:10;11.10;99.90
35559;DHT22;21661;50.794;-1.066;2023-11-21T02:27:36;11.10;99.90
35559;DHT22;21661;50.794;-1.066;2023-11-21T02:30:03;11.10;99.90
35559;DHT22;21661;50.794;-1.066;2023-11-21T02:32:30;11.10;99.90
35559;DHT22;21661;50.794;-1.066;2023-11-21T02:34:57;11.10;99.90
35559;DHT22;21661;50.794;-1.066;2023-11-21T02:37:26;11.00;99.90
35559;DHT22;21661;50.794;-1.066;2023-11-21T02:39:52;11.00;99.90
35559;DHT22;21661;50.794;-1.066;2023-11-21T02:42:18;11.10;99.90
35559;DHT22;21661;50.794;-1.066;2023-11-21T02:44:44;11.10;99.90
35559;DHT22;21661;50.794;-1.066;2023-11-21T02:47:10;11.00;99.90
35559;DHT22;21661;50.794;-1.066;2023-11-21T02:49:35;11.10;99.90
35559;DHT22;21661;50.794;-1.066;2023-11-21T02:52:01;11.00;99.90
35559;DHT22;21661;50.794;-1.066;2023-11-21T02:54:27;11.10;99.90
35559;DHT22;21661;50.794;-1.066;2023-11-21T02:56:53;11.10;99.90
35559;DHT22;21661;50.794;-1.066;2023-11-21T02:59:18;11.10;99.90
35559;DHT22;21661;50.794;-1.066;2023-11-21T03:01:45;11.10;99.90
35559;DHT22;21661;50.794;-1.066;2023-11-21T03:04:10;11.10;99.90
35559;DHT22;21661;50.794;-1.066;2023-11-21T03:06:36;11.10;99.90
35559;DHT22;21661;50.794;-1.066;2023-11-21T03:09:02;11.10;99.90
35559;DHT22;21661;50.794;-1.066;2023-11-21T03:11:27;11.10;99.90
35559;DHT22;21661;50.794;-1.066;2023-11-21T03:13:53;11.10;99.90
35559;DHT22;21661;50.794;-1.066;2023-11-21T03:16:18;11.10;99.90
35559;DHT22;21661;50.794;-1.066;2023-11-21T03:18:44;11.10;99.90
35559;DHT22;21661;50.794;-1.066;2023-11-21T03:21:10;11.20;99.90
35559;DHT22;21661;50.794;-1.066;2023-11-21T03:23:36;11.10;99.90
35559;DHT22;21661;50.794;-1.066;2023-11-21T03:26:02;11.10;99.90
35559;DHT22;21661;50.794;-1.066;2023-11-21T03:28:28;11.10;99.90
35559;DHT22;21661;50.794;-1.066;2023-11-21T03:30:55;11.10;99.90
35559;DHT22;21661;50.794;-1.066;2023-11-21T03:33:21;11.10;99.90
35559;DHT22;21661;50.794;-1.066;2023-11-21T03:35:47;11.10;99.90
35559;DHT22;21661;50.794;-1.066;2023-11-21T03:38:13;11.10;99.90
35559;DHT22;21661;50.794;-1.066;2023-11-21T03:40:39;11.10;99.90
35559;DHT22;21661;50.794;-1.066;2023-11-21T03:43:07;11.20;99.90
35559;DHT22;21661;50.794;-1.066;2023-11-21T03:45:32;11.20;99.90
35559;DHT22;21661;50.794;-1.066;2023-11-21T03:47:58;11.30;99.90
35559;DHT22;21661;50.794;-1.066;2023-11-21T03:50:28;11.20;99.90
35559;DHT22;21661;50.794;-1.066;2023-11-21T03:52:54;11.20;99.90
35559;DHT22;21661;50.794;-1.066;2023-11-21T03:55:19;11.20;99.90
35559;DHT22;21661;50.794;-1.066;2023-11-21T03:57:45;11.20;99.90
35559;DHT22;21661;50.794;-1.066;2023-11-21T04:00:11;11.20;99.90
35559;DHT22;21661;50.794;-1.066;2023-11-21T04:02:36;11.20;99.90
35559;DHT22;21661;50.794;-1.066;2023-11-21T04:05:02;11.30;99.90
35559;DHT22;21661;50.794;-1.066;2023-11-21T04:07:28;11.20;99.90
35559;DHT22;21661;50.794;-1.066;2023-11-21T04:09:54;11.30;99.90
35559;DHT22;21661;50.794;-1.066;2023-11-21T04:12:19;11.30;99.90
35559;DHT22;21661;50.794;-1.066;2023-11-21T04:14:45;11.30;99.90
35559;DHT22;21661;50.794;-1.066;2023-11-21T04:17:11;11.30;99.90
35559;DHT22;21661;50.794;-1.066;2023-11-21T04:19:36;11.40;99.90
35559;DHT22;21661;50.794;-1.066;2023-11-21T04:22:02;11.40;99.90
35559;DHT22;21661;50.794;-1.066;2023-11-21T04:24:27;11.40;99.90
35559;DHT22;21661;50.794;-1.066;2023-11-21T04:26:53;11.30;99.90
35559;DHT22;21661;50.794;-1.066;2023-11-21T04:29:19;11.30;99.90
35559;DHT22;21661;50.794;-1.066;2023-11-21T04:31:44;11.30;99.90
35559;DHT22;21661;50.794;-1.066;2023-11-21T04:34:10;11.20;99.90
35559;DHT22;21661;50.794;-1.066;2023-11-21T04:36:35;11.30;99.90
35559;DHT22;21661;50.794;-1.066;2023-11-21T04:39:01;11.30;99.90
35559;DHT22;21661;50.794;-1.066;2023-11-21T04:41:26;11.30;99.90
35559;DHT22;21661;50.794;-1.066;2023-11-21T04:43:52;11.30;99.90
35559;DHT22;21661;50.794;-1.066;2023-11-21T04:46:18;11.30;99.90
35559;DHT22;21661;50.794;-1.066;2023-11-21T04:48:43;11.30;99.90
35559;DHT22;21661;50.794;-1.066;2023-11-21T04:51:09;11.30;99.90
35559;DHT22;21661;50.794;-1.066;2023-11-21T04:53:37;11.30;99.90
35559;DHT22;21661;50.794;-1.066;2023-11-21T04:56:02;11.30;99.90
35559;DHT22;21661;50.794;-1.066;2023-11-21T04:58:28;11.30;99.90
35559;DHT22;21661;50.794;-1.066;2023-11-21T05:00:54;11.30;99.90
35559;DHT22;21661;50.794;-1.066;2023-11-21T05:03:20;11.30;99.90
35559;DHT22;21661;50.794;-1.066;2023-11-21T05:05:45;11.30;99.90
35559;DHT22;21661;50.794;-1.066;2023-11-21T05:08:11;11.30;99.90
35559;DHT22;21661;50.794;-1.066;2023-11-21T05:10:37;11.40;99.90
35559;DHT22;21661;50.794;-1.066;2023-11-21T05:13:04;11.40;99.90
35559;DHT22;21661;50.794;-1.066;2023-11-21T05:15:35;11.40;99.90
35559;DHT22;21661;50.794;-1.066;2023-11-21T05:18:00;11.40;99.90
35559;DHT22;21661;50.794;-1.066;2023-11-21T05:20:26;11.40;99.90
35559;DHT22;21661;50.794;-1.066;2023-11-21T05:22:51;11.40;99.90
35559;DHT22;21661;50.794;-1.066;2023-11-21T05:25:17;11.40;99.90
35559;DHT22;21661;50.794;-1.066;2023-11-21T05:27:47;11.40;99.90
35559;DHT22;21661;50.794;-1.066;2023-11-21T05:30:13;11.50;99.90
35559;DHT22;21661;50.794;-1.066;2023-11-21T05:32:40;11.50;99.90
35559;DHT22;21661;50.794;-1.066;2023-11-21T05:35:07;11.50;99.90
35559;DHT22;21661;50.794;-1.066;2023-11-21T05:37:37;11.50;99.90
35559;DHT22;21661;50.794;-1.066;2023-11-21T05:40:06;11.50;99.90
35559;DHT22;21661;50.794;-1.066;2023-11-21T05:42:33;11.50;99.90
35559;DHT22;21661;50.794;-1.066;2023-11-21T05:44:59;11.40;99.90
35559;DHT22;21661;50.794;-1.066;2023-11-21T05:47:25;11.40;99.90
35559;DHT22;21661;50.794;-1.066;2023-11-21T05:49:53;11.40;99.90
35559;DHT22;21661;50.794;-1.066;2023-11-21T05:52:19;11.50;99.90
35559;DHT22;21661;50.794;-1.066;2023-11-21T05:54:46;11.40;99.90
35559;DHT22;21661;50.794;-1.066;2023-11-21T05:57:11;11.40;99.90
35559;DHT22;21661;50.794;-1.066;2023-11-21T05:59:37;11.40;99.90
35559;DHT22;21661;50.794;-1.066;2023-11-21T06:02:02;11.40;99.90
35559;DHT22;21661;50.794;-1.066;2023-11-21T06:04:28;11.40;99.90
35559;DHT22;21661;50.794;-1.066;2023-11-21T06:06:54;11.40;99.90
35559;DHT22;21661;50.794;-1.066;2023-11-21T06:09:20;11.30;99.90
35559;DHT22;21661;50.794;-1.066;2023-11-21T06:11:46;11.30;99.90
35559;DHT22;21661;50.794;-1.066;2023-11-21T06:14:11;11.30;99.90
35559;DHT22;21661;50.794;-1.066;2023-11-21T06:16:37;11.30;99.90
35559;DHT22;21661;50.794;-1.066;2023-11-21T06:19:02;11.40;99.90
35559;DHT22;21661;50.794;-1.066;2023-11-21T06:21:28;11.40;99.90
35559;DHT22;21661;50.794;-1.066;2023-11-21T06:23:54;11.40;99.90
35559;DHT22;21661;50.794;-1.066;2023-11-21T06:26:22;11.40;99.90
35559;DHT22;21661;50.794;-1.066;2023-11-21T06:28:48;11.40;99.90
35559;DHT22;21661;50.794;-1.066;2023-11-21T06:31:16;11.40;99.90
35559;DHT22;21661;50.794;-1.066;2023-11-21T06:33:42;11.30;99.90
35559;DHT22;21661;50.794;-1.066;2023-11-21T06:36:08;11.40;99.90
35559;DHT22;21661;50.794;-1.066;2023-11-21T06:38:37;11.40;99.90
35559;DHT22;21661;50.794;-1.066;2023-11-21T06:41:03;11.30;99.90
35559;DHT22;21661;50.794;-1.066;2023-11-21T06:43:29;11.30;99.90
35559;DHT22;21661;50.794;-1.066;2023-11-21T06:45:57;11.30;99.90
35559;DHT22;21661;50.794;-1.066;2023-11-21T06:48:22;11.30;99.90
35559;DHT22;21661;50.794;-1.066;2023-11-21T06:50:48;11.30;99.90
35559;DHT22;21661;50.794;-1.066;2023-11-21T06:53:14;11.30;99.90
35559;DHT22;21661;50.794;-1.066;2023-11-21T06:55:39;11.20;99.90
35559;DHT22;21661;50.794;-1.066;2023-11-21T06:58:07;11.20;99.90
35559;DHT22;21661;50.794;-1.066;2023-11-21T07:00:33;11.20;99.90
35559;DHT22;21661;50.794;-1.066;2023-11-21T07:02:59;11.10;99.90
35559;DHT22;21661;50.794;-1.066;2023-11-21T07:05:24;11.10;99.90
35559;DHT22;21661;50.794;-1.066;2023-11-21T07:07:50;11.10;99.90
35559;DHT22;21661;50.794;-1.066;2023-11-21T07:10:16;11.10;99.90
35559;DHT22;21661;50.794;-1.066;2023-11-21T07:12:42;11.00;99.90
35559;DHT22;21661;50.794;-1.066;2023-11-21T07:15:08;11.00;99.90
35559;DHT22;21661;50.794;-1.066;2023-11-21T07:17:37;11.00;99.90
35559;DHT22;21661;50.794;-1.066;2023-11-21T07:20:03;11.00;99.90
35559;DHT22;21661;50.794;-1.066;2023-11-21T07:22:29;11.00;99.90
35559;DHT22;21661;50.794;-1.066;2023-11-21T07:24:55;11.00;99.90
35559;DHT22;21661;50.794;-1.066;2023-11-21T07:27:22;10.90;99.90
35559;DHT22;21661;50.794;-1.066;2023-11-21T07:29:47;10.90;99.90
35559;DHT22;21661;50.794;-1.066;2023-11-21T07:32:13;10.90;99.90
35559;DHT22;21661;50.794;-1.066;2023-11-21T07:34:40;10.90;99.90
35559;DHT22;21661;50.794;-1.066;2023-11-21T07:37:07;10.90;99.90
35559;DHT22;21661;50.794;-1.066;2023-11-21T07:39:34;10.80;99.90
35559;DHT22;21661;50.794;-1.066;2023-11-21T07:42:01;10.80;99.90
35559;DHT22;21661;50.794;-1.066;2023-11-21T07:44:28;10.80;99.90
35559;DHT22;21661;50.794;-1.066;2023-11-21T07:46:54;10.80;99.90
35559;DHT22;21661;50.794;-1.066;2023-11-21T07:49:23;10.90;99.90
35559;DHT22;21661;50.794;-1.066;2023-11-21T07:51:48;10.90;99.90
35559;DHT22;21661;50.794;-1.066;2023-11-21T07:54:14;10.90;99.90
35559;DHT22;21661;50.794;-1.066;2023-11-21T07:56:41;10.90;99.90
35559;DHT22;21661;50.794;-1.066;2023-11-21T07:59:06;10.90;99.90
35559;DHT22;21661;50.794;-1.066;2023-11-21T08:01:32;10.90;99.90
35559;DHT22;21661;50.794;-1.066;2023-11-21T08:03:58;10.90;99.90
35559;DHT22;21661;50.794;-1.066;2023-11-21T08:06:27;10.90;99.90
35559;DHT22;21661;50.794;-1.066;2023-11-21T08:08:53;11.00;99.90
35559;DHT22;21661;50.794;-1.066;2023-11-21T08:11:19;10.90;99.90
35559;DHT22;21661;50.794;-1.066;2023-11-21T08:13:45;10.90;99.90
35559;DHT22;21661;50.794;-1.066;2023-11-21T08:16:11;10.90;99.90
35559;DHT22;21661;50.794;-1.066;2023-11-21T08:18:37;10.90;99.90
35559;DHT22;21661;50.794;-1.066;2023-11-21T08:21:03;11.00;99.90
35559;DHT22;21661;50.794;-1.066;2023-11-21T08:23:30;10.90;99.90
35559;DHT22;21661;50.794;-1.066;2023-11-21T08:25:56;10.90;99.90
35559;DHT22;21661;50.794;-1.066;2023-11-21T08:28:21;10.90;99.90
35559;DHT22;21661;50.794;-1.066;2023-11-21T08:30:51;10.90;99.90
35559;DHT22;21661;50.794;-1.066;2023-11-21T08:33:17;10.90;99.90
35559;DHT22;21661;50.794;-1.066;2023-11-21T08:35:43;10.80;99.90
35559;DHT22;21661;50.794;-1.066;2023-11-21T08:38:09;10.70;99.90
35559;DHT22;21661;50.794;-1.066;2023-11-21T08:40:35;10.70;99.90
35559;DHT22;21661;50.794;-1.066;2023-11-21T08:43:01;10.70;99.90
35559;DHT22;21661;50.794;-1.066;2023-11-21T08:45:30;10.70;99.90
35559;DHT22;21661;50.794;-1.066;2023-11-21T08:47:56;10.70;99.90
35559;DHT22;21661;50.794;-1.066;2023-11-21T08:50:21;10.80;99.90
35559;DHT22;21661;50.794;-1.066;2023-11-21T08:52:47;10.70;99.90
35559;DHT22;21661;50.794;-1.066;2023-11-21T08:55:13;10.80;99.90
35559;DHT22;21661;50.794;-1.066;2023-11-21T08:57:39;10.80;99.90
35559;DHT22;21661;50.794;-1.066;2023-11-21T09:00:07;10.80;99.90
35559;DHT22;21661;50.794;-1.066;2023-11-21T09:02:38;10.80;99.90
35559;DHT22;21661;50.794;-1.066;2023-11-21T09:05:05;10.80;99.90
35559;DHT22;21661;50.794;-1.066;2023-11-21T09:07:31;10.90;99.90
35559;DHT22;21661;50.794;-1.066;2023-11-21T09:09:56;10.90;99.90
35559;DHT22;21661;50.794;-1.066;2023-11-21T09:12:22;10.90;99.90
35559;DHT22;21661;50.794;-1.066;2023-11-21T09:14:50;11.00;99.90
35559;DHT22;21661;50.794;-1.066;2023-11-21T09:17:16;11.00;99.90
35559;DHT22;21661;50.794;-1.066;2023-11-21T09:19:42;11.10;99.90
35559;DHT22;21661;50.794;-1.066;2023-11-21T09:22:10;11.10;99.90
35559;DHT22;21661;50.794;-1.066;2023-11-21T09:24:36;11.10;99.90
35559;DHT22;21661;50.794;-1.066;2023-11-21T09:27:03;11.20;99.90
35559;DHT22;21661;50.794;-1.066;2023-11-21T09:29:29;11.10;99.90
35559;DHT22;21661;50.794;-1.066;2023-11-21T09:31:55;11.20;99.90
35559;DHT22;21661;50.794;-1.066;2023-11-21T09:34:22;11.20;99.90
35559;DHT22;21661;50.794;-1.066;2023-11-21T09:36:48;11.20;99.90
35559;DHT22;21661;50.794;-1.066;2023-11-21T09:39:14;11.20;99.90
35559;DHT22;21661;50.794;-1.066;2023-11-21T09:41:57;11.20;99.90
35559;DHT22;21661;50.794;-1.066;2023-11-21T09:44:35;11.30;99.90
35559;DHT22;21661;50.794;-1.066;2023-11-21T09:47:02;11.20;99.90
35559;DHT22;21661;50.794;-1.066;2023-11-21T09:49:28;11.30;99.90
35559;DHT22;21661;50.794;-1.066;2023-11-21T09:51:58;11.30;99.90
35559;DHT22;21661;50.794;-1.066;2023-11-21T09:54:29;11.40;99.90
35559;DHT22;21661;50.794;-1.066;2023-11-21T09:56:57;11.40;99.90
35559;DHT22;21661;50.794;-1.066;2023-11-21T09:59:23;11.40;99.90
35559;DHT22;21661;50.794;-1.066;2023-11-21T10:01:49;11.40;99.90
35559;DHT22;21661;50.794;-1.066;2023-11-21T10:04:16;11.40;99.90
35559;DHT22;21661;50.794;-1.066;2023-11-21T10:06:43;11.30;99.90
35559;DHT22;21661;50.794;-1.066;2023-11-21T10:09:12;11.30;99.90
35559;DHT22;21661;50.794;-1.066;2023-11-21T10:11:42;11.40;99.90
35559;DHT22;21661;50.794;-1.066;2023-11-21T10:14:12;11.30;99.90
35559;DHT22;21661;50.794;-1.066;2023-11-21T10:16:40;11.40;99.90
35559;DHT22;21661;50.794;-1.066;2023-11-21T10:19:09;11.40;99.90
35559;DHT22;21661;50.794;-1.066;2023-11-21T10:21:36;11.40;99.90
35559;DHT22;21661;50.794;-1.066;2023-11-21T10:24:02;11.40;99.90
35559;DHT22;21661;50.794;-1.066;2023-11-21T10:26:28;11.50;99.90
35559;DHT22;21661;50.794;-1.066;2023-11-21T10:29:00;11.50;99.90
35559;DHT22;21661;50.794;-1.066;2023-11-21T10:31:30;11.50;99.90
35559;DHT22;21661;50.794;-1.066;2023-11-21T10:36:40;11.60;99.90
35559;DHT22;21661;50.794;-1.066;2023-11-21T10:39:06;11.50;99.90
35559;DHT22;21661;50.794;-1.066;2023-11-21T10:41:32;11.40;99.90
35559;DHT22;21661;50.794;-1.066;2023-11-21T10:43:58;11.50;99.90
35559;DHT22;21661;50.794;-1.066;2023-11-21T10:46:24;11.40;99.90
35559;DHT22;21661;50.794;-1.066;2023-11-21T10:48:54;11.50;99.90
35559;DHT22;21661;50.794;-1.066;2023-11-21T10:51:21;11.50;99.90
35559;DHT22;21661;50.794;-1.066;2023-11-21T10:53:47;11.40;99.90
35559;DHT22;21661;50.794;-1.066;2023-11-21T10:56:14;11.40;99.90
35559;DHT22;21661;50.794;-1.066;2023-11-21T10:58:48;11.40;99.90
35559;DHT22;21661;50.794;-1.066;2023-11-21T11:01:16;11.40;99.90
35559;DHT22;21661;50.794;-1.066;2023-11-21T11:03:44;11.40;99.90
35559;DHT22;21661;50.794;-1.066;2023-11-21T11:06:10;11.40;99.90
35559;DHT22;21661;50.794;-1.066;2023-11-21T11:08:39;11.30;99.90
35559;DHT22;21661;50.794;-1.066;2023-11-21T11:11:05;11.40;99.90
35559;DHT22;21661;50.794;-1.066;2023-11-21T11:13:31;11.40;99.90
35559;DHT22;21661;50.794;-1.066;2023-11-21T11:16:01;11.40;99.90
35559;DHT22;21661;50.794;-1.066;2023-11-21T11:18:32;11.40;99.90
35559;DHT22;21661;50.794;-1.066;2023-11-21T11:21:32;11.40;99.90
35559;DHT22;21661;50.794;-1.066;2023-11-21T11:24:12;11.40;99.90
35559;DHT22;21661;50.794;-1.066;2023-11-21T11:26:58;11.40;99.90
35559;DHT22;21661;50.794;-1.066;2023-11-21T11:29:45;11.40;99.90
35559;DHT22;21661;50.794;-1.066;2023-11-21T11:35:07;11.50;99.90
35559;DHT22;21661;50.794;-1.066;2023-11-21T11:37:35;11.50;99.90
35559;DHT22;21661;50.794;-1.066;2023-11-21T11:40:01;11.50;99.90
35559;DHT22;21661;50.794;-1.066;2023-11-21T11:42:32;11.50;99.90
35559;DHT22;21661;50.794;-1.066;2023-11-21T11:44:58;11.50;99.90
35559;DHT22;21661;50.794;-1.066;2023-11-21T11:47:28;11.60;99.90
35559;DHT22;21661;50.794;-1.066;2023-11-21T11:50:11;11.60;99.90
35559;DHT22;21661;50.794;-1.066;2023-11-21T11:52:48;11.70;99.90
35559;DHT22;21661;50.794;-1.066;2023-11-21T11:55:17;11.70;99.90
35559;DHT22;21661;50.794;-1.066;2023-11-21T11:57:45;11.70;99.90
35559;DHT22;21661;50.794;-1.066;2023-11-21T12:00:17;11.70;99.90
35559;DHT22;21661;50.794;-1.066;2023-11-21T12:02:50;11.70;99.90
35559;DHT22;21661;50.794;-1.066;2023-11-21T12:05:18;11.70;99.90
35559;DHT22;21661;50.794;-1.066;2023-11-21T12:07:51;11.70;99.90
35559;DHT22;21661;50.794;-1.066;2023-11-21T12:10:22;11.70;99.90
35559;DHT22;21661;50.794;-1.066;2023-11-21T12:15:25;11.70;99.90
35559;DHT22;21661;50.794;-1.066;2023-11-21T12:17:52;11.70;99.90
35559;DHT22;21661;50.794;-1.066;2023-11-21T12:20:23;11.70;99.90
35559;DHT22;21661;50.794;-1.066;2023-11-21T12:22:50;11.60;99.90
35559;DHT22;21661;50.794;-1.066;2023-11-21T12:27:48;11.60;99.90
35559;DHT22;21661;50.794;-1.066;2023-11-21T12:30:15;11.70;99.90
35559;DHT22;21661;50.794;-1.066;2023-11-21T12:32:48;11.70;99.90
35559;DHT22;21661;50.794;-1.066;2023-11-21T12:35:14;11.80;99.90
35559;DHT22;21661;50.794;-1.066;2023-11-21T12:37:41;11.70;99.90
35559;DHT22;21661;50.794;-1.066;2023-11-21T12:40:10;11.70;99.90
35559;DHT22;21661;50.794;-1.066;2023-11-21T12:42:45;11.70;99.90
35559;DHT22;21661;50.794;-1.066;2023-11-21T12:47:47;11.70;99.90
35559;DHT22;21661;50.794;-1.066;2023-11-21T12:50:15;11.70;99.90
35559;DHT22;21661;50.794;-1.066;2023-11-21T12:52:51;11.70;99.90
35559;DHT22;21661;50.794;-1.066;2023-11-21T12:55:21;11.70;99.90
35559;DHT22;21661;50.794;-1.066;2023-11-21T12:57:54;11.80;99.90
35559;DHT22;21661;50.794;-1.066;2023-11-21T13:00:27;11.90;99.90
35559;DHT22;21661;50.794;-1.066;2023-11-21T13:02:58;11.90;99.90
35559;DHT22;21661;50.794;-1.066;2023-11-21T13:05:29;11.90;99.90
35559;DHT22;21661;50.794;-1.066;2023-11-21T13:07:57;11.80;99.90
35559;DHT22;21661;50.794;-1.066;2023-11-21T13:10:27;11.80;99.90
35559;DHT22;21661;50.794;-1.066;2023-11-21T13:12:57;11.80;99.90
35559;DHT22;21661;50.794;-1.066;2023-11-21T13:15:24;11.70;99.90
35559;DHT22;21661;50.794;-1.066;2023-11-21T13:17:50;11.70;99.90
35559;DHT22;21661;50.794;-1.066;2023-11-21T13:20:17;11.70;99.90
35559;DHT22;21661;50.794;-1.066;2023-11-21T13:22:53;11.80;99.90
35559;DHT22;21661;50.794;-1.066;2023-11-21T13:25:27;11.80;99.90
35559;DHT22;21661;50.794;-1.066;2023-11-21T13:27:59;11.90;99.90
35559;DHT22;21661;50.794;-1.066;2023-11-21T13:30:26;11.80;99.90
35559;DHT22;21661;50.794;-1.066;2023-11-21T13:32:56;11.90;99.90
35559;DHT22;21661;50.794;-1.066;2023-11-21T13:35:33;11.90;99.90
35559;DHT22;21661;50.794;-1.066;2023-11-21T13:38:13;11.90;99.90
35559;DHT22;21661;50.794;-1.066;2023-11-21T13:40:41;11.90;99.90
35559;DHT22;21661;50.794;-1.066;2023-11-21T13:43:12;12.00;99.90
35559;DHT22;21661;50.794;-1.066;2023-11-21T13:45:42;12.00;99.90
35559;DHT22;21661;50.794;-1.066;2023-11-21T13:48:10;11.90;99.90
35559;DHT22;21661;50.794;-1.066;2023-11-21T13:50:41;12.00;99.90
35559;DHT22;21661;50.794;-1.066;2023-11-21T13:53:20;12.00;99.90
35559;DHT22;21661;50.794;-1.066;2023-11-21T13:55:53;12.00;99.90
35559;DHT22;21661;50.794;-1.066;2023-11-21T13:58:26;12.00;99.90
35559;DHT22;21661;50.794;-1.066;2023-11-21T14:01:07;12.00;99.90
35559;DHT22;21661;50.794;-1.066;2023-11-21T14:03:42;12.00;99.90
35559;DHT22;21661;50.794;-1.066;2023-11-21T14:06:17;12.00;99.90
35559;DHT22;21661;50.794;-1.066;2023-11-21T14:08:50;11.90;99.90
35559;DHT22;21661;50.794;-1.066;2023-11-21T14:11:15;12.00;99.90
35559;DHT22;21661;50.794;-1.066;2023-11-21T14:13:43;12.00;99.90
35559;DHT22;21661;50.794;-1.066;2023-11-21T14:16:13;11.90;99.90
35559;DHT22;21661;50.794;-1.066;2023-11-21T14:18:39;11.90;99.90
35559;DHT22;21661;50.794;-1.066;2023-11-21T14:21:18;12.00;99.90
35559;DHT22;21661;50.794;-1.066;2023-11-21T14:23:43;12.00;99.90
35559;DHT22;21661;50.794;-1.066;2023-11-21T14:26:11;12.10;99.90
35559;DHT22;21661;50.794;-1.066;2023-11-21T14:28:40;12.10;99.90
35559;DHT22;21661;50.794;-1.066;2023-11-21T14:31:07;12.10;99.90
35559;DHT22;21661;50.794;-1.066;2023-11-21T14:33:33;12.00;99.90
35559;DHT22;21661;50.794;-1.066;2023-11-21T14:35:59;12.10;99.90
35559;DHT22;21661;50.794;-1.066;2023-11-21T14:38:24;12.10;99.90
35559;DHT22;21661;50.794;-1.066;2023-11-21T14:40:50;12.10;99.90
35559;DHT22;21661;50.794;-1.066;2023-11-21T14:43:15;12.00;99.90
35559;DHT22;21661;50.794;-1.066;2023-11-21T14:45:42;12.00;99.90
35559;DHT22;21661;50.794;-1.066;2023-11-21T14:48:07;12.00;99.90
35559;DHT22;21661;50.794;-1.066;2023-11-21T14:50:41;11.90;99.90
35559;DHT22;21661;50.794;-1.066;2023-11-21T14:53:11;11.90;99.90
35559;DHT22;21661;50.794;-1.066;2023-11-21T14:55:38;11.90;99.90
35559;DHT22;21661;50.794;-1.066;2023-11-21T14:58:22;11.90;99.90
35559;DHT22;21661;50.794;-1.066;2023-11-21T15:00:58;11.90;99.90
35559;DHT22;21661;50.794;-1.066;2023-11-21T15:03:25;11.90;99.90
35559;DHT22;21661;50.794;-1.066;2023-11-21T15:05:57;11.90;99.90
35559;DHT22;21661;50.794;-1.066;2023-11-21T15:08:22;11.90;99.90
35559;DHT22;21661;50.794;-1.066;2023-11-21T15:10:57;11.90;99.90
35559;DHT22;21661;50.794;-1.066;2023-11-21T15:13:23;11.90;99.90
35559;DHT22;21661;50.794;-1.066;2023-11-21T15:15:51;11.80;99.90
35559;DHT22;21661;50.794;-1.066;2023-11-21T15:18:19;11.80;99.90
35559;DHT22;21661;50.794;-1.066;2023-11-21T15:20:45;11.80;99.90
35559;DHT22;21661;50.794;-1.066;2023-11-21T15:23:11;11.80;99.90
35559;DHT22;21661;50.794;-1.066;2023-11-21T15:25:38;11.80;99.90
35559;DHT22;21661;50.794;-1.066;2023-11-21T15:28:04;11.70;99.90
35559;DHT22;21661;50.794;-1.066;2023-11-21T15:30:31;11.80;99.90